• Join FlightAware (Why Join?)
  • Login
  • US Flag 
07:43PM EDT


 

Airport Tracker/Info


-or-


 

Live Flight TrackerFlight Track Log ✈ SWA2955 ✈ 09-Apr-2013 ✈ KDAL - KABQ

Flight Track Log - Related Links

Times and Time Zones

All times are in EDT time to prevent confusion due to time zone crossing. See the SWA2955 flight status page for this flight to view local times or setup timezone preferences in your user account.

Time Position Orientation Groundspeed Altitude Reporting Facility
EDT Latitude Longitude Course Direction KTS MPH feet Rate Location/Type
03:41PM 32.8333 -96.8333 140° Southeast 151 174 1,800  Level Dallas / Fort Worth TRACON
03:42PM 32.7833 -96.7833 140° Southeast 200 230 4,100 1,800 Climbing Dallas / Fort Worth TRACON
03:43PM 32.7500 -96.7500 140° Southeast 213 245 5,500 2,100 Climbing Dallas / Fort Worth TRACON
03:44PM 32.6833 -96.7500 180° South 234 269 8,200 2,220 Climbing Dallas / Fort Worth TRACON
03:45PM 32.6147 -96.7672 192° South 245 282 10,100 960 Climbing Fort Worth Center
03:46PM 32.5878 -96.8389 246° West 297 342 10,300 1,860 Climbing Fort Worth Center
03:47PM 32.5736 -96.9572 262° West 361 415 13,900 3,060 Climbing Fort Worth Center
03:48PM 32.6178 -97.0681 295° West 383 441 16,500 2,460 Climbing Fort Worth Center
03:49PM 32.6556 -97.1742 293° West 383 441 18,900 2,580 Climbing Fort Worth Center
03:50PM 32.7061 -97.3072 294° West 395 455 21,700 2,700 Climbing Fort Worth Center
03:51PM 32.7478 -97.4233 293° West 405 466 24,300 2,280 Climbing Fort Worth Center
03:52PM 32.7936 -97.5469 294° West 411 473 26,300 1,920 Climbing Fort Worth Center
03:53PM 32.8478 -97.6903 294° West 423 487 28,200 1,920 Climbing Fort Worth Center
03:54PM 32.8681 -97.8314 280° West 429 494 30,200 2,220 Climbing Fort Worth Center
03:55PM 32.8656 -97.9700 269° West 419 482 32,700 2,340 Climbing Fort Worth Center
03:56PM 32.8647 -98.1008 270° West 410 472 34,900 1,800 Climbing Fort Worth Center
03:57PM 32.8619 -98.2297 269° West 397 457 36,400 1,500 Climbing Fort Worth Center
03:58PM 32.8611 -98.3581 270° West 397 457 38,000 780 Climbing Fort Worth Center
03:59PM 32.8561 -98.4644 267° West 385 443 38,000  Level Fort Worth Center
04:00PM 32.8569 -98.5906 270° West 375 432 38,000  Level Fort Worth Center
04:01PM 32.8558 -98.7167 269° West 380 437 38,000  Level Fort Worth Center
04:02PM 32.8522 -98.8453 268° West 386 444 38,000  Level Fort Worth Center
04:03PM 32.8528 -98.9739 270° West 386 444 38,000  Level Fort Worth Center
04:04PM 32.8492 -99.1025 268° West 386 444 38,000  Level Fort Worth Center
04:05PM 32.8472 -99.2308 269° West 386 444 38,000  Level Fort Worth Center
04:06PM 32.8433 -99.3544 268° West 381 438 38,000  Level Fort Worth Center
04:07PM 32.8414 -99.4781 269° West 381 438 38,000  Level Fort Worth Center
04:08PM 32.8436 -99.5992 271° West 381 438 38,000  Level Fort Worth Center
04:09PM 32.8872 -99.7192 293° West 375 432 38,000  Level Fort Worth Center
04:10PM 32.9369 -99.8492 295° West 388 447 38,000  Level Fort Worth Center
04:11PM 32.9828 -99.9642 295° West 393 452 38,000  Level Fort Worth Center
04:12PM 33.0281 -100.0869 294° West 398 458 38,000  Level Fort Worth Center
04:13PM 33.0714 -100.2072 293° West 398 458 38,000  Level Fort Worth Center
04:14PM 33.1189 -100.3278 295° West 398 458 38,000  Level Fort Worth Center
04:15PM 33.1639 -100.4483 294° West 398 458 38,000  Level Fort Worth Center
04:16PM 33.2111 -100.5717 295° West 398 458 38,000  Level Fort Worth Center
04:17PM 33.2539 -100.6922 293° West 398 458 38,000  Level Fort Worth Center
04:18PM 33.2986 -100.8133 294° West 398 458 38,000  Level Fort Worth Center
04:19PM 33.3453 -100.9319 295° West 398 458 38,000  Level Fort Worth Center
04:20PM 33.3864 -101.0356 295° West 398 458 38,000  Level Fort Worth Center
04:21PM 33.4364 -101.1719 294° West 406 467 38,000  Level Fort Worth Center
04:22PM 33.4750 -101.2808 293° West 401 461 38,000  Level Fort Worth Center
04:23PM 33.5250 -101.4150 294° West 401 461 38,000  Level Fort Worth Center
04:24PM 33.5633 -101.5239 293° West 401 461 38,000  Level Fort Worth Center
04:25PM 33.6131 -101.6583 294° West 401 461 38,000  Level Fort Worth Center
04:27PM 33.7142 -101.9178 295° West 411 473 38,000  Level Albuquerque Center
04:28PM 33.8000 -102.0244 314° West 445 512 38,000  Level Albuquerque Center
04:29PM 33.8900 -102.1267 317° Northwest 447 514 38,000  Level Albuquerque Center
04:30PM 33.9783 -102.2306 316° Northwest 447 514 38,000  Level Albuquerque Center
04:31PM 34.0667 -102.3344 316° Northwest 444 511 38,000  Level Albuquerque Center
04:32PM 34.1561 -102.4392 316° Northwest 447 514 38,000  Level Albuquerque Center
04:33PM 34.2581 -102.5594 316° Northwest 447 514 38,000  Level Albuquerque Center
04:34PM 34.3478 -102.6633 316° Northwest 446 513 38,000  Level Albuquerque Center
04:35PM 34.4372 -102.7697 316° Northwest 448 516 38,000  Level Albuquerque Center
04:36PM 34.5025 -102.8944 302° West 409 471 38,000  Level Albuquerque Center
04:37PM 34.5183 -103.0208 279° West 380 437 38,000  Level Albuquerque Center
04:38PM 34.5328 -103.1486 278° West 379 436 38,000  Level Albuquerque Center
04:39PM 34.5481 -103.2756 278° West 378 435 38,000 -420 Level Albuquerque Center
04:40PM 34.5639 -103.4047 279° West 382 440 37,200 -900 Descending Albuquerque Center
04:41PM 34.5794 -103.5314 279° West 378 435 36,200 -1,080 Descending Albuquerque Center
04:42PM 34.6081 -103.6839 283° West 390 449 35,100 -1,020 Descending Albuquerque Center
04:43PM 34.6425 -103.8181 287° West 407 468 34,200 -960 Descending Albuquerque Center
04:44PM 34.6753 -103.9506 287° West 407 468 33,200 -1,080 Descending Albuquerque Center
04:45PM 34.7064 -104.0794 286° West 398 458 32,100 -1,080 Descending Albuquerque Center
04:47PM 34.7361 -104.2042 286° West 386 444 31,000 -1,020 Descending Albuquerque Center
04:48PM 34.7672 -104.3286 287° West 380 437 30,000 -540 Descending Albuquerque Center
04:49PM 34.7969 -104.4553 286° West 383 441 30,000  Level Albuquerque Center
04:50PM 34.8267 -104.5808 286° West 382 440 30,000  Level Albuquerque Center
04:51PM 34.8456 -104.7097 280° West 382 440 30,000 -180 Level Albuquerque Center
04:52PM 34.8564 -104.8394 276° West 380 437 29,700 -660 Descending Albuquerque Center
04:53PM 34.8689 -104.9725 277° West 387 445 28,700 -960 Descending Albuquerque Center
04:54PM 34.8806 -105.1064 276° West 391 450 27,800 -1,080 Descending Albuquerque Center
04:55PM 34.8947 -105.2622 276° West 392 451 26,600 -1,080 Descending Albuquerque Center
04:56PM 34.9069 -105.3925 277° West 386 444 25,600 -1,080 Descending Albuquerque Center
04:57PM 34.9181 -105.5222 276° West 383 441 24,400 -1,620 Descending Albuquerque Center
04:58PM 34.9292 -105.6458 276° West 369 425 22,300 -2,100 Descending Albuquerque Center
04:59PM 34.9386 -105.7678 275° West 360 414 20,100 -2,340 Descending Albuquerque Center
05:00PM 34.9456 -105.8967 274° West 359 413 17,700 -1,920 Descending Albuquerque Center
05:01PM 34.9525 -105.9831 276° West 345 397 16,700 -1,140 Descending Albuquerque Center
05:01PM 34.9564 -106.0078 281° West 344 396 16,500 -1,200 Descending Albuquerque Center
05:02PM 34.9556 -106.1069 269° West 312 359 15,400 -1,440 Descending Albuquerque Center
05:03PM 34.9575 -106.2128 271° West 309 356 13,900 -1,560 Descending Albuquerque Center
05:04PM 34.9586 -106.3161 271° West 306 352 12,300 -1,560 Descending Albuquerque Center
05:05PM 34.9594 -106.4169 271° West 299 344 10,800 -1,320 Descending Albuquerque Center
05:05PM 34.9586 -106.4250 263° West 303 349 10,700 -600 Descending Albuquerque Center
05:06PM 34.9553 -106.5139 267° West 280 322 10,200 -600 Descending Albuquerque Center
05:06PM 34.9550 -106.5383 269° West 290 334 10,100 -1,020 Descending Albuquerque Center
05:07PM 34.9253 -106.5864 233° Southwest 249 287 9,200 -1,080 Descending Albuquerque Center
05:07PM 34.9106 -106.6017 220° Southwest 265 305 9,000 -1,020 Descending Albuquerque Center
05:08PM 34.9011 -106.6550 258° West 215 247 8,200 -1,080 Descending Albuquerque Center
05:08PM 34.9075 -106.6714 295° West 234 269 7,900 -1,020 Descending Albuquerque Center
05:09PM 34.9403 -106.6967 328° Northwest 169 194 7,200 -840 Descending Albuquerque Center
05:09PM 34.9508 -106.6983 353° North 200 230 7,100 -840 Descending Albuquerque Center
05:10PM 34.9839 -106.6775 27° Northeast 167 192 6,400 -900 Descending Albuquerque Center
05:10PM 34.9903 -106.6703 43° Northeast 178 205 6,200 -840 Descending Albuquerque Center
05:11PM 35.0139 -106.6414 45° Northeast 150 173 5,600 -780 Descending Albuquerque Center
05:11PM 35.0194 -106.6319 54° Northeast 163 188 5,400 -600 Descending Albuquerque Center